sensor_id;sensor_type;location;lat;lon;timestamp;P1;durP1;ratioP1;P2;durP2;ratioP2
27151;SDS011;14677;53.520;7.274;2022-12-18T00:01:50;252.77;;;68.65;;
27151;SDS011;14677;53.520;7.274;2022-12-18T00:04:21;234.80;;;66.90;;
27151;SDS011;14677;53.520;7.274;2022-12-18T00:06:49;250.18;;;65.53;;
27151;SDS011;14677;53.520;7.274;2022-12-18T00:09:16;256.17;;;65.97;;
27151;SDS011;14677;53.520;7.274;2022-12-18T00:11:44;262.27;;;69.47;;
27151;SDS011;14677;53.520;7.274;2022-12-18T00:14:12;255.10;;;67.38;;
27151;SDS011;14677;53.520;7.274;2022-12-18T00:16:39;268.75;;;70.47;;
27151;SDS011;14677;53.520;7.274;2022-12-18T00:19:08;255.05;;;70.13;;
27151;SDS011;14677;53.520;7.274;2022-12-18T00:21:35;256.17;;;68.82;;
27151;SDS011;14677;53.520;7.274;2022-12-18T00:24:03;240.10;;;65.35;;
27151;SDS011;14677;53.520;7.274;2022-12-18T00:26:31;246.00;;;68.93;;
27151;SDS011;14677;53.520;7.274;2022-12-18T00:29:03;262.38;;;70.30;;
27151;SDS011;14677;53.520;7.274;2022-12-18T00:31:31;248.18;;;67.47;;
27151;SDS011;14677;53.520;7.274;2022-12-18T00:33:59;252.13;;;67.85;;
27151;SDS011;14677;53.520;7.274;2022-12-18T00:36:28;245.40;;;68.22;;
27151;SDS011;14677;53.520;7.274;2022-12-18T00:38:56;225.95;;;66.15;;
27151;SDS011;14677;53.520;7.274;2022-12-18T00:41:24;220.38;;;63.40;;
27151;SDS011;14677;53.520;7.274;2022-12-18T00:44:11;209.43;;;60.90;;
27151;SDS011;14677;53.520;7.274;2022-12-18T00:46:39;225.32;;;64.00;;
27151;SDS011;14677;53.520;7.274;2022-12-18T00:49:06;229.88;;;70.32;;
27151;SDS011;14677;53.520;7.274;2022-12-18T00:51:34;233.13;;;67.07;;
27151;SDS011;14677;53.520;7.274;2022-12-18T00:54:01;232.82;;;65.25;;
27151;SDS011;14677;53.520;7.274;2022-12-18T00:56:28;218.32;;;66.10;;
27151;SDS011;14677;53.520;7.274;2022-12-18T00:58:56;224.98;;;63.60;;
27151;SDS011;14677;53.520;7.274;2022-12-18T01:01:23;214.70;;;63.08;;
27151;SDS011;14677;53.520;7.274;2022-12-18T01:03:50;233.30;;;63.28;;
27151;SDS011;14677;53.520;7.274;2022-12-18T01:06:18;218.38;;;65.97;;
27151;SDS011;14677;53.520;7.274;2022-12-18T01:08:46;220.65;;;62.75;;
27151;SDS011;14677;53.520;7.274;2022-12-18T01:11:14;206.40;;;60.42;;
27151;SDS011;14677;53.520;7.274;2022-12-18T01:13:42;202.35;;;60.50;;
27151;SDS011;14677;53.520;7.274;2022-12-18T01:16:13;207.52;;;61.40;;
27151;SDS011;14677;53.520;7.274;2022-12-18T01:18:41;215.13;;;59.05;;
27151;SDS011;14677;53.520;7.274;2022-12-18T01:21:09;205.95;;;61.25;;
27151;SDS011;14677;53.520;7.274;2022-12-18T01:23:37;221.07;;;63.80;;
27151;SDS011;14677;53.520;7.274;2022-12-18T01:26:10;219.98;;;63.88;;
27151;SDS011;14677;53.520;7.274;2022-12-18T01:28:38;227.57;;;64.50;;
27151;SDS011;14677;53.520;7.274;2022-12-18T01:31:21;214.05;;;61.88;;
27151;SDS011;14677;53.520;7.274;2022-12-18T01:33:49;204.60;;;61.50;;
27151;SDS011;14677;53.520;7.274;2022-12-18T01:36:18;214.82;;;60.53;;
27151;SDS011;14677;53.520;7.274;2022-12-18T01:38:46;221.32;;;62.78;;
27151;SDS011;14677;53.520;7.274;2022-12-18T01:41:15;226.73;;;63.20;;
27151;SDS011;14677;53.520;7.274;2022-12-18T01:46:10;210.10;;;61.00;;
27151;SDS011;14677;53.520;7.274;2022-12-18T01:48:37;221.57;;;59.88;;
27151;SDS011;14677;53.520;7.274;2022-12-18T01:51:06;216.50;;;58.47;;
27151;SDS011;14677;53.520;7.274;2022-12-18T01:53:34;217.30;;;61.53;;
27151;SDS011;14677;53.520;7.274;2022-12-18T01:56:03;222.98;;;61.10;;
27151;SDS011;14677;53.520;7.274;2022-12-18T01:59:16;221.38;;;61.17;;
27151;SDS011;14677;53.520;7.274;2022-12-18T02:01:18;219.73;;;61.70;;
27151;SDS011;14677;53.520;7.274;2022-12-18T02:03:47;231.23;;;61.75;;
27151;SDS011;14677;53.520;7.274;2022-12-18T02:08:49;210.63;;;59.85;;
27151;SDS011;14677;53.520;7.274;2022-12-18T02:18:59;214.80;;;58.78;;
27151;SDS011;14677;53.520;7.274;2022-12-18T02:24:06;208.27;;;57.33;;
27151;SDS011;14677;53.520;7.274;2022-12-18T02:26:40;220.45;;;56.70;;
27151;SDS011;14677;53.520;7.274;2022-12-18T02:29:13;217.30;;;57.65;;
27151;SDS011;14677;53.520;7.274;2022-12-18T02:31:43;232.55;;;58.63;;
27151;SDS011;14677;53.520;7.274;2022-12-18T02:34:11;212.35;;;56.58;;
27151;SDS011;14677;53.520;7.274;2022-12-18T02:36:40;223.45;;;58.25;;
27151;SDS011;14677;53.520;7.274;2022-12-18T02:39:09;219.68;;;60.47;;
27151;SDS011;14677;53.520;7.274;2022-12-18T02:41:36;221.65;;;61.28;;
27151;SDS011;14677;53.520;7.274;2022-12-18T02:44:11;232.20;;;61.45;;
27151;SDS011;14677;53.520;7.274;2022-12-18T02:46:51;217.73;;;59.47;;
27151;SDS011;14677;53.520;7.274;2022-12-18T02:49:30;231.13;;;56.97;;
27151;SDS011;14677;53.520;7.274;2022-12-18T02:54:41;224.40;;;58.58;;
27151;SDS011;14677;53.520;7.274;2022-12-18T02:57:18;225.40;;;56.08;;
27151;SDS011;14677;53.520;7.274;2022-12-18T02:59:58;227.85;;;57.50;;
27151;SDS011;14677;53.520;7.274;2022-12-18T03:02:35;222.27;;;53.78;;
27151;SDS011;14677;53.520;7.274;2022-12-18T03:05:09;234.52;;;56.95;;
27151;SDS011;14677;53.520;7.274;2022-12-18T03:07:41;235.13;;;59.53;;
27151;SDS011;14677;53.520;7.274;2022-12-18T03:10:11;221.52;;;57.42;;
27151;SDS011;14677;53.520;7.274;2022-12-18T03:12:42;251.10;;;59.20;;
27151;SDS011;14677;53.520;7.274;2022-12-18T03:15:18;241.50;;;60.75;;
27151;SDS011;14677;53.520;7.274;2022-12-18T03:17:48;234.35;;;59.90;;
27151;SDS011;14677;53.520;7.274;2022-12-18T03:20:18;247.95;;;61.78;;
27151;SDS011;14677;53.520;7.274;2022-12-18T03:22:46;248.07;;;59.45;;
27151;SDS011;14677;53.520;7.274;2022-12-18T03:25:16;258.05;;;61.63;;
27151;SDS011;14677;53.520;7.274;2022-12-18T03:27:46;233.00;;;60.05;;
27151;SDS011;14677;53.520;7.274;2022-12-18T03:30:16;245.25;;;60.70;;
27151;SDS011;14677;53.520;7.274;2022-12-18T03:35:12;244.02;;;63.08;;
27151;SDS011;14677;53.520;7.274;2022-12-18T03:37:41;254.80;;;62.42;;
27151;SDS011;14677;53.520;7.274;2022-12-18T03:40:08;249.10;;;60.15;;
27151;SDS011;14677;53.520;7.274;2022-12-18T03:42:59;227.02;;;61.85;;
27151;SDS011;14677;53.520;7.274;2022-12-18T03:45:27;236.55;;;62.22;;
27151;SDS011;14677;53.520;7.274;2022-12-18T03:48:04;228.77;;;63.25;;
27151;SDS011;14677;53.520;7.274;2022-12-18T03:50:38;229.68;;;59.70;;
27151;SDS011;14677;53.520;7.274;2022-12-18T03:53:31;237.10;;;61.72;;
27151;SDS011;14677;53.520;7.274;2022-12-18T03:55:57;233.25;;;60.03;;
27151;SDS011;14677;53.520;7.274;2022-12-18T03:58:25;245.50;;;63.50;;
27151;SDS011;14677;53.520;7.274;2022-12-18T04:00:54;225.55;;;59.42;;
27151;SDS011;14677;53.520;7.274;2022-12-18T04:03:22;209.45;;;57.67;;
27151;SDS011;14677;53.520;7.274;2022-12-18T04:06:02;240.40;;;58.47;;
27151;SDS011;14677;53.520;7.274;2022-12-18T04:08:30;237.45;;;59.65;;
27151;SDS011;14677;53.520;7.274;2022-12-18T04:10:57;233.93;;;59.63;;
27151;SDS011;14677;53.520;7.274;2022-12-18T04:13:29;234.40;;;61.28;;
27151;SDS011;14677;53.520;7.274;2022-12-18T04:15:56;249.52;;;60.40;;
27151;SDS011;14677;53.520;7.274;2022-12-18T04:18:24;229.40;;;59.13;;
27151;SDS011;14677;53.520;7.274;2022-12-18T04:20:51;224.52;;;59.50;;
27151;SDS011;14677;53.520;7.274;2022-12-18T04:23:19;220.43;;;60.67;;
27151;SDS011;14677;53.520;7.274;2022-12-18T04:25:46;234.25;;;58.95;;
27151;SDS011;14677;53.520;7.274;2022-12-18T04:28:14;242.57;;;60.10;;
27151;SDS011;14677;53.520;7.274;2022-12-18T04:30:41;203.23;;;58.88;;
27151;SDS011;14677;53.520;7.274;2022-12-18T04:33:12;213.40;;;57.72;;
27151;SDS011;14677;53.520;7.274;2022-12-18T04:35:39;209.23;;;60.35;;
27151;SDS011;14677;53.520;7.274;2022-12-18T04:38:07;196.13;;;53.60;;
27151;SDS011;14677;53.520;7.274;2022-12-18T04:40:36;191.15;;;52.33;;
27151;SDS011;14677;53.520;7.274;2022-12-18T04:43:04;194.95;;;54.80;;
27151;SDS011;14677;53.520;7.274;2022-12-18T04:45:31;181.18;;;53.95;;
27151;SDS011;14677;53.520;7.274;2022-12-18T04:47:59;157.25;;;50.35;;
27151;SDS011;14677;53.520;7.274;2022-12-18T04:50:27;164.20;;;49.42;;
27151;SDS011;14677;53.520;7.274;2022-12-18T04:52:54;168.63;;;49.10;;
27151;SDS011;14677;53.520;7.274;2022-12-18T04:55:22;162.57;;;47.67;;
27151;SDS011;14677;53.520;7.274;2022-12-18T04:57:49;160.52;;;47.05;;
27151;SDS011;14677;53.520;7.274;2022-12-18T05:00:17;158.05;;;47.90;;
27151;SDS011;14677;53.520;7.274;2022-12-18T05:02:44;160.10;;;46.17;;
27151;SDS011;14677;53.520;7.274;2022-12-18T05:05:12;166.18;;;48.40;;
27151;SDS011;14677;53.520;7.274;2022-12-18T05:07:39;136.05;;;42.67;;
27151;SDS011;14677;53.520;7.274;2022-12-18T05:10:07;140.40;;;44.50;;
27151;SDS011;14677;53.520;7.274;2022-12-18T05:12:35;151.00;;;44.22;;
27151;SDS011;14677;53.520;7.274;2022-12-18T05:15:22;142.20;;;46.10;;
27151;SDS011;14677;53.520;7.274;2022-12-18T05:17:50;139.88;;;43.28;;
27151;SDS011;14677;53.520;7.274;2022-12-18T05:20:17;127.88;;;41.78;;
27151;SDS011;14677;53.520;7.274;2022-12-18T05:22:45;134.20;;;43.83;;
27151;SDS011;14677;53.520;7.274;2022-12-18T05:25:12;146.90;;;43.00;;
27151;SDS011;14677;53.520;7.274;2022-12-18T05:27:39;132.68;;;41.88;;
27151;SDS011;14677;53.520;7.274;2022-12-18T05:30:07;132.50;;;44.40;;
27151;SDS011;14677;53.520;7.274;2022-12-18T05:32:35;132.07;;;41.47;;
27151;SDS011;14677;53.520;7.274;2022-12-18T05:35:02;123.05;;;42.30;;
27151;SDS011;14677;53.520;7.274;2022-12-18T05:37:29;131.25;;;42.22;;
27151;SDS011;14677;53.520;7.274;2022-12-18T05:39:57;132.48;;;41.80;;
27151;SDS011;14677;53.520;7.274;2022-12-18T05:42:24;127.47;;;42.65;;
27151;SDS011;14677;53.520;7.274;2022-12-18T05:44:51;120.43;;;41.70;;
27151;SDS011;14677;53.520;7.274;2022-12-18T05:47:19;128.98;;;41.33;;
27151;SDS011;14677;53.520;7.274;2022-12-18T05:49:46;118.45;;;40.60;;
27151;SDS011;14677;53.520;7.274;2022-12-18T05:52:13;139.00;;;40.63;;
27151;SDS011;14677;53.520;7.274;2022-12-18T05:54:41;122.95;;;40.60;;
27151;SDS011;14677;53.520;7.274;2022-12-18T05:57:08;126.28;;;40.30;;
27151;SDS011;14677;53.520;7.274;2022-12-18T05:59:35;128.43;;;40.80;;
27151;SDS011;14677;53.520;7.274;2022-12-18T06:02:03;123.82;;;39.50;;
27151;SDS011;14677;53.520;7.274;2022-12-18T06:04:30;121.55;;;39.63;;
27151;SDS011;14677;53.520;7.274;2022-12-18T06:06:59;128.07;;;39.22;;
27151;SDS011;14677;53.520;7.274;2022-12-18T06:09:26;126.30;;;39.58;;
27151;SDS011;14677;53.520;7.274;2022-12-18T06:11:53;114.25;;;38.58;;
27151;SDS011;14677;53.520;7.274;2022-12-18T06:14:20;122.30;;;38.83;;
27151;SDS011;14677;53.520;7.274;2022-12-18T06:17:13;105.28;;;37.95;;
27151;SDS011;14677;53.520;7.274;2022-12-18T06:19:40;131.63;;;40.10;;
27151;SDS011;14677;53.520;7.274;2022-12-18T06:22:07;109.63;;;36.88;;
27151;SDS011;14677;53.520;7.274;2022-12-18T06:24:35;113.72;;;37.65;;
27151;SDS011;14677;53.520;7.274;2022-12-18T06:27:02;129.93;;;38.97;;
27151;SDS011;14677;53.520;7.274;2022-12-18T06:29:29;114.90;;;37.85;;
27151;SDS011;14677;53.520;7.274;2022-12-18T06:31:56;120.05;;;37.72;;
27151;SDS011;14677;53.520;7.274;2022-12-18T06:34:24;115.43;;;36.33;;
27151;SDS011;14677;53.520;7.274;2022-12-18T06:36:51;121.22;;;38.53;;
27151;SDS011;14677;53.520;7.274;2022-12-18T06:39:18;109.43;;;37.47;;
27151;SDS011;14677;53.520;7.274;2022-12-18T06:41:46;109.60;;;36.92;;
27151;SDS011;14677;53.520;7.274;2022-12-18T06:44:13;109.32;;;36.70;;
27151;SDS011;14677;53.520;7.274;2022-12-18T06:46:40;105.45;;;36.15;;
27151;SDS011;14677;53.520;7.274;2022-12-18T06:49:08;105.65;;;36.28;;
27151;SDS011;14677;53.520;7.274;2022-12-18T06:51:35;106.75;;;35.70;;
27151;SDS011;14677;53.520;7.274;2022-12-18T06:54:03;107.22;;;36.47;;
27151;SDS011;14677;53.520;7.274;2022-12-18T06:56:30;104.38;;;35.40;;
27151;SDS011;14677;53.520;7.274;2022-12-18T06:58:57;96.38;;;36.75;;
27151;SDS011;14677;53.520;7.274;2022-12-18T07:01:25;100.28;;;34.45;;
27151;SDS011;14677;53.520;7.274;2022-12-18T07:03:53;103.72;;;34.15;;
27151;SDS011;14677;53.520;7.274;2022-12-18T07:06:21;99.10;;;33.20;;
27151;SDS011;14677;53.520;7.274;2022-12-18T07:08:49;99.47;;;33.45;;
27151;SDS011;14677;53.520;7.274;2022-12-18T07:11:17;102.68;;;33.25;;
27151;SDS011;14677;53.520;7.274;2022-12-18T07:13:45;97.68;;;34.40;;
27151;SDS011;14677;53.520;7.274;2022-12-18T07:16:16;98.90;;;32.88;;
27151;SDS011;14677;53.520;7.274;2022-12-18T07:18:51;90.88;;;31.98;;
27151;SDS011;14677;53.520;7.274;2022-12-18T07:21:18;105.95;;;33.47;;
27151;SDS011;14677;53.520;7.274;2022-12-18T07:23:46;85.45;;;30.42;;
27151;SDS011;14677;53.520;7.274;2022-12-18T07:26:15;93.80;;;30.60;;
27151;SDS011;14677;53.520;7.274;2022-12-18T07:28:42;106.55;;;34.45;;
27151;SDS011;14677;53.520;7.274;2022-12-18T07:31:11;100.15;;;33.80;;
27151;SDS011;14677;53.520;7.274;2022-12-18T07:33:38;93.75;;;32.58;;
27151;SDS011;14677;53.520;7.274;2022-12-18T07:36:07;90.82;;;31.90;;
27151;SDS011;14677;53.520;7.274;2022-12-18T07:38:34;99.20;;;32.03;;
27151;SDS011;14677;53.520;7.274;2022-12-18T07:41:12;101.88;;;31.25;;
27151;SDS011;14677;53.520;7.274;2022-12-18T07:43:40;91.47;;;31.95;;
27151;SDS011;14677;53.520;7.274;2022-12-18T07:46:08;88.30;;;30.40;;
27151;SDS011;14677;53.520;7.274;2022-12-18T07:48:39;89.50;;;30.30;;
27151;SDS011;14677;53.520;7.274;2022-12-18T07:51:06;92.05;;;31.15;;
27151;SDS011;14677;53.520;7.274;2022-12-18T07:53:34;88.97;;;30.45;;
27151;SDS011;14677;53.520;7.274;2022-12-18T07:56:04;85.40;;;31.92;;
27151;SDS011;14677;53.520;7.274;2022-12-18T07:58:52;83.85;;;28.75;;
27151;SDS011;14677;53.520;7.274;2022-12-18T08:01:19;79.43;;;29.05;;
27151;SDS011;14677;53.520;7.274;2022-12-18T08:03:47;78.07;;;28.60;;
27151;SDS011;14677;53.520;7.274;2022-12-18T08:06:17;77.22;;;29.10;;
27151;SDS011;14677;53.520;7.274;2022-12-18T08:08:53;79.80;;;27.88;;
27151;SDS011;14677;53.520;7.274;2022-12-18T08:11:21;74.90;;;27.73;;
27151;SDS011;14677;53.520;7.274;2022-12-18T08:13:48;75.82;;;26.80;;
27151;SDS011;14677;53.520;7.274;2022-12-18T08:16:16;79.18;;;26.75;;
27151;SDS011;14677;53.520;7.274;2022-12-18T08:18:44;71.00;;;26.75;;
27151;SDS011;14677;53.520;7.274;2022-12-18T08:21:12;81.50;;;27.40;;
27151;SDS011;14677;53.520;7.274;2022-12-18T08:23:41;82.22;;;26.25;;
27151;SDS011;14677;53.520;7.274;2022-12-18T08:26:09;71.40;;;27.00;;
27151;SDS011;14677;53.520;7.274;2022-12-18T08:28:37;72.80;;;26.83;;
27151;SDS011;14677;53.520;7.274;2022-12-18T08:31:04;64.10;;;26.58;;
27151;SDS011;14677;53.520;7.274;2022-12-18T08:33:33;65.55;;;24.67;;
27151;SDS011;14677;53.520;7.274;2022-12-18T08:36:00;71.05;;;25.77;;
27151;SDS011;14677;53.520;7.274;2022-12-18T08:38:28;69.30;;;27.63;;
27151;SDS011;14677;53.520;7.274;2022-12-18T08:41:02;60.97;;;23.55;;
27151;SDS011;14677;53.520;7.274;2022-12-18T08:43:30;71.45;;;26.33;;
27151;SDS011;14677;53.520;7.274;2022-12-18T08:46:16;63.58;;;24.80;;
27151;SDS011;14677;53.520;7.274;2022-12-18T08:48:44;64.78;;;26.48;;
27151;SDS011;14677;53.520;7.274;2022-12-18T08:51:12;62.17;;;24.35;;
27151;SDS011;14677;53.520;7.274;2022-12-18T08:53:39;66.97;;;25.58;;
27151;SDS011;14677;53.520;7.274;2022-12-18T08:56:07;57.47;;;24.58;;
27151;SDS011;14677;53.520;7.274;2022-12-18T08:58:35;74.15;;;24.80;;
27151;SDS011;14677;53.520;7.274;2022-12-18T09:01:03;63.88;;;23.42;;
27151;SDS011;14677;53.520;7.274;2022-12-18T09:03:31;56.33;;;22.08;;
27151;SDS011;14677;53.520;7.274;2022-12-18T09:05:59;61.95;;;24.63;;
27151;SDS011;14677;53.520;7.274;2022-12-18T09:08:26;56.58;;;24.33;;
27151;SDS011;14677;53.520;7.274;2022-12-18T09:10:54;58.42;;;24.25;;
27151;SDS011;14677;53.520;7.274;2022-12-18T09:13:21;55.75;;;22.73;;
27151;SDS011;14677;53.520;7.274;2022-12-18T09:15:50;63.70;;;23.60;;
27151;SDS011;14677;53.520;7.274;2022-12-18T09:18:18;55.60;;;23.48;;
27151;SDS011;14677;53.520;7.274;2022-12-18T09:20:46;51.58;;;22.48;;
27151;SDS011;14677;53.520;7.274;2022-12-18T09:23:14;53.92;;;21.77;;
27151;SDS011;14677;53.520;7.274;2022-12-18T09:25:41;59.58;;;22.77;;
27151;SDS011;14677;53.520;7.274;2022-12-18T09:28:12;51.58;;;22.60;;
27151;SDS011;14677;53.520;7.274;2022-12-18T09:30:41;54.42;;;22.38;;
27151;SDS011;14677;53.520;7.274;2022-12-18T09:33:09;54.00;;;23.15;;
27151;SDS011;14677;53.520;7.274;2022-12-18T09:35:37;57.22;;;23.10;;
27151;SDS011;14677;53.520;7.274;2022-12-18T09:38:05;60.65;;;25.10;;
27151;SDS011;14677;53.520;7.274;2022-12-18T09:40:34;48.67;;;22.95;;
27151;SDS011;14677;53.520;7.274;2022-12-18T09:43:03;51.05;;;21.73;;
27151;SDS011;14677;53.520;7.274;2022-12-18T09:45:38;50.43;;;21.77;;
27151;SDS011;14677;53.520;7.274;2022-12-18T09:48:05;46.80;;;20.92;;
27151;SDS011;14677;53.520;7.274;2022-12-18T09:50:37;60.97;;;22.77;;
27151;SDS011;14677;53.520;7.274;2022-12-18T09:53:06;46.78;;;20.10;;
27151;SDS011;14677;53.520;7.274;2022-12-18T09:55:40;43.67;;;19.52;;
27151;SDS011;14677;53.520;7.274;2022-12-18T10:00:36;66.50;;;25.70;;
27151;SDS011;14677;53.520;7.274;2022-12-18T10:03:10;46.70;;;20.60;;
27151;SDS011;14677;53.520;7.274;2022-12-18T10:10:57;46.72;;;19.55;;
27151;SDS011;14677;53.520;7.274;2022-12-18T10:13:31;39.80;;;18.45;;
27151;SDS011;14677;53.520;7.274;2022-12-18T10:21:25;38.30;;;18.38;;
27151;SDS011;14677;53.520;7.274;2022-12-18T10:26:17;46.33;;;19.67;;
27151;SDS011;14677;53.520;7.274;2022-12-18T10:28:46;37.88;;;18.52;;
27151;SDS011;14677;53.520;7.274;2022-12-18T10:31:20;36.80;;;17.33;;
27151;SDS011;14677;53.520;7.274;2022-12-18T10:33:49;36.75;;;16.42;;
27151;SDS011;14677;53.520;7.274;2022-12-18T10:36:17;42.22;;;19.10;;
27151;SDS011;14677;53.520;7.274;2022-12-18T10:38:45;39.13;;;17.05;;
27151;SDS011;14677;53.520;7.274;2022-12-18T10:43:48;32.95;;;15.43;;
27151;SDS011;14677;53.520;7.274;2022-12-18T10:46:21;27.63;;;16.23;;
27151;SDS011;14677;53.520;7.274;2022-12-18T10:48:50;31.93;;;15.50;;
27151;SDS011;14677;53.520;7.274;2022-12-18T10:51:26;28.55;;;14.30;;
27151;SDS011;14677;53.520;7.274;2022-12-18T10:53:57;27.60;;;13.93;;
27151;SDS011;14677;53.520;7.274;2022-12-18T10:56:28;23.08;;;11.30;;
27151;SDS011;14677;53.520;7.274;2022-12-18T10:58:57;28.35;;;13.75;;
27151;SDS011;14677;53.520;7.274;2022-12-18T11:01:24;26.27;;;14.38;;
27151;SDS011;14677;53.520;7.274;2022-12-18T11:06:27;36.13;;;17.40;;
27151;SDS011;14677;53.520;7.274;2022-12-18T11:09:02;25.08;;;14.05;;
27151;SDS011;14677;53.520;7.274;2022-12-18T11:11:37;23.75;;;12.50;;
27151;SDS011;14677;53.520;7.274;2022-12-18T11:14:05;25.48;;;13.07;;
27151;SDS011;14677;53.520;7.274;2022-12-18T11:16:37;27.83;;;12.35;;
27151;SDS011;14677;53.520;7.274;2022-12-18T11:22:45;23.40;;;12.30;;
27151;SDS011;14677;53.520;7.274;2022-12-18T11:27:57;19.75;;;11.02;;
27151;SDS011;14677;53.520;7.274;2022-12-18T11:30:28;23.75;;;11.57;;
27151;SDS011;14677;53.520;7.274;2022-12-18T11:32:57;21.25;;;10.77;;
27151;SDS011;14677;53.520;7.274;2022-12-18T11:35:47;25.90;;;11.85;;
27151;SDS011;14677;53.520;7.274;2022-12-18T11:38:24;24.85;;;10.75;;
27151;SDS011;14677;53.520;7.274;2022-12-18T11:41:04;21.52;;;10.65;;
27151;SDS011;14677;53.520;7.274;2022-12-18T11:43:48;22.88;;;11.07;;
27151;SDS011;14677;53.520;7.274;2022-12-18T11:46:18;21.08;;;10.43;;
27151;SDS011;14677;53.520;7.274;2022-12-18T11:49:09;21.30;;;10.52;;
27151;SDS011;14677;53.520;7.274;2022-12-18T11:51:41;19.55;;;10.00;;
27151;SDS011;14677;53.520;7.274;2022-12-18T11:54:14;18.75;;;10.23;;
27151;SDS011;14677;53.520;7.274;2022-12-18T11:56:49;22.83;;;9.48;;
27151;SDS011;14677;53.520;7.274;2022-12-18T12:01:50;19.83;;;10.75;;
27151;SDS011;14677;53.520;7.274;2022-12-18T12:09:28;23.50;;;10.13;;
27151;SDS011;14677;53.520;7.274;2022-12-18T12:14:38;18.25;;;9.55;;
27151;SDS011;14677;53.520;7.274;2022-12-18T12:30:07;16.58;;;9.20;;
27151;SDS011;14677;53.520;7.274;2022-12-18T12:32:45;18.27;;;9.20;;
27151;SDS011;14677;53.520;7.274;2022-12-18T12:38:09;14.17;;;7.03;;
27151;SDS011;14677;53.520;7.274;2022-12-18T12:40:37;18.60;;;10.15;;
27151;SDS011;14677;53.520;7.274;2022-12-18T12:53:45;20.20;;;10.20;;
27151;SDS011;14677;53.520;7.274;2022-12-18T12:56:14;17.98;;;9.82;;
27151;SDS011;14677;53.520;7.274;2022-12-18T13:07:06;211.18;;;82.05;;
27151;SDS011;14677;53.520;7.274;2022-12-18T13:10:11;18.10;;;10.73;;
27151;SDS011;14677;53.520;7.274;2022-12-18T13:12:26;18.48;;;9.80;;
27151;SDS011;14677;53.520;7.274;2022-12-18T13:15:22;19.75;;;10.32;;
27151;SDS011;14677;53.520;7.274;2022-12-18T13:26:27;19.67;;;10.38;;
27151;SDS011;14677;53.520;7.274;2022-12-18T13:31:15;23.73;;;11.32;;
27151;SDS011;14677;53.520;7.274;2022-12-18T13:36:54;29.83;;;15.15;;
27151;SDS011;14677;53.520;7.274;2022-12-18T13:39:40;26.23;;;13.63;;
27151;SDS011;14677;53.520;7.274;2022-12-18T13:44:38;20.02;;;11.38;;
27151;SDS011;14677;53.520;7.274;2022-12-18T13:49:54;20.08;;;11.57;;
27151;SDS011;14677;53.520;7.274;2022-12-18T13:52:23;20.30;;;11.55;;
27151;SDS011;14677;53.520;7.274;2022-12-18T13:54:52;23.48;;;11.30;;
27151;SDS011;14677;53.520;7.274;2022-12-18T13:57:27;22.33;;;12.05;;
27151;SDS011;14677;53.520;7.274;2022-12-18T13:59:55;20.20;;;11.68;;
27151;SDS011;14677;53.520;7.274;2022-12-18T14:02:23;22.77;;;12.05;;
27151;SDS011;14677;53.520;7.274;2022-12-18T14:04:51;16.75;;;10.65;;
27151;SDS011;14677;53.520;7.274;2022-12-18T14:10:00;22.80;;;11.55;;
27151;SDS011;14677;53.520;7.274;2022-12-18T14:12:48;21.65;;;10.43;;
27151;SDS011;14677;53.520;7.274;2022-12-18T14:18:09;23.52;;;11.05;;
27151;SDS011;14677;53.520;7.274;2022-12-18T14:20:43;19.15;;;11.25;;
27151;SDS011;14677;53.520;7.274;2022-12-18T14:25:57;21.98;;;11.65;;
27151;SDS011;14677;53.520;7.274;2022-12-18T14:28:31;22.80;;;10.88;;
27151;SDS011;14677;53.520;7.274;2022-12-18T14:30:58;23.92;;;11.77;;
27151;SDS011;14677;53.520;7.274;2022-12-18T14:33:26;20.77;;;11.02;;
27151;SDS011;14677;53.520;7.274;2022-12-18T14:35:58;21.75;;;11.52;;
27151;SDS011;14677;53.520;7.274;2022-12-18T14:40:58;22.30;;;11.07;;
27151;SDS011;14677;53.520;7.274;2022-12-18T14:43:27;19.63;;;10.65;;
27151;SDS011;14677;53.520;7.274;2022-12-18T14:45:54;18.08;;;9.45;;
27151;SDS011;14677;53.520;7.274;2022-12-18T14:51:03;18.33;;;9.60;;
27151;SDS011;14677;53.520;7.274;2022-12-18T14:54:06;22.70;;;10.85;;
27151;SDS011;14677;53.520;7.274;2022-12-18T14:56:27;21.02;;;9.63;;
27151;SDS011;14677;53.520;7.274;2022-12-18T14:58:59;17.42;;;10.18;;
27151;SDS011;14677;53.520;7.274;2022-12-18T15:01:37;17.20;;;9.90;;
27151;SDS011;14677;53.520;7.274;2022-12-18T15:04:05;17.85;;;10.13;;
27151;SDS011;14677;53.520;7.274;2022-12-18T15:06:50;20.48;;;9.98;;
27151;SDS011;14677;53.520;7.274;2022-12-18T15:09:29;159.98;;;70.43;;
27151;SDS011;14677;53.520;7.274;2022-12-18T15:11:57;21.52;;;12.90;;
27151;SDS011;14677;53.520;7.274;2022-12-18T15:17:05;20.90;;;9.88;;
27151;SDS011;14677;53.520;7.274;2022-12-18T15:19:40;19.95;;;10.05;;
27151;SDS011;14677;53.520;7.274;2022-12-18T15:22:17;18.52;;;9.10;;
27151;SDS011;14677;53.520;7.274;2022-12-18T15:24:46;19.33;;;9.65;;
27151;SDS011;14677;53.520;7.274;2022-12-18T15:27:24;16.50;;;8.57;;
27151;SDS011;14677;53.520;7.274;2022-12-18T15:32:49;20.13;;;8.82;;
27151;SDS011;14677;53.520;7.274;2022-12-18T15:37:44;17.58;;;8.77;;
27151;SDS011;14677;53.520;7.274;2022-12-18T15:40:15;16.35;;;8.95;;
27151;SDS011;14677;53.520;7.274;2022-12-18T15:42:45;17.63;;;8.32;;
27151;SDS011;14677;53.520;7.274;2022-12-18T15:45:31;18.38;;;9.02;;
27151;SDS011;14677;53.520;7.274;2022-12-18T15:47:59;19.52;;;9.45;;
27151;SDS011;14677;53.520;7.274;2022-12-18T15:50:27;12.10;;;8.05;;
27151;SDS011;14677;53.520;7.274;2022-12-18T15:52:55;11.65;;;7.63;;
27151;SDS011;14677;53.520;7.274;2022-12-18T15:55:23;16.95;;;8.88;;
27151;SDS011;14677;53.520;7.274;2022-12-18T15:58:10;12.93;;;8.07;;
27151;SDS011;14677;53.520;7.274;2022-12-18T16:00:39;20.25;;;8.75;;
27151;SDS011;14677;53.520;7.274;2022-12-18T16:03:08;16.13;;;8.35;;
27151;SDS011;14677;53.520;7.274;2022-12-18T16:05:35;12.10;;;7.32;;
27151;SDS011;14677;53.520;7.274;2022-12-18T16:08:03;16.60;;;8.15;;
27151;SDS011;14677;53.520;7.274;2022-12-18T16:10:30;15.88;;;7.72;;
27151;SDS011;14677;53.520;7.274;2022-12-18T16:12:57;12.95;;;8.07;;
27151;SDS011;14677;53.520;7.274;2022-12-18T16:15:25;18.08;;;8.48;;
27151;SDS011;14677;53.520;7.274;2022-12-18T16:17:52;15.10;;;7.47;;
27151;SDS011;14677;53.520;7.274;2022-12-18T16:20:20;17.73;;;10.10;;
27151;SDS011;14677;53.520;7.274;2022-12-18T16:22:48;14.60;;;8.23;;
27151;SDS011;14677;53.520;7.274;2022-12-18T16:25:18;16.33;;;7.95;;
27151;SDS011;14677;53.520;7.274;2022-12-18T16:27:48;15.23;;;7.60;;
27151;SDS011;14677;53.520;7.274;2022-12-18T16:30:18;15.35;;;8.07;;
27151;SDS011;14677;53.520;7.274;2022-12-18T16:32:45;22.85;;;11.80;;
27151;SDS011;14677;53.520;7.274;2022-12-18T16:35:13;15.43;;;8.18;;
27151;SDS011;14677;53.520;7.274;2022-12-18T16:37:41;12.35;;;7.85;;
27151;SDS011;14677;53.520;7.274;2022-12-18T16:40:10;13.02;;;7.35;;
27151;SDS011;14677;53.520;7.274;2022-12-18T16:42:38;10.82;;;6.75;;
27151;SDS011;14677;53.520;7.274;2022-12-18T16:45:06;13.23;;;7.55;;
27151;SDS011;14677;53.520;7.274;2022-12-18T16:47:34;13.90;;;7.97;;